sensor_id;sensor_type;location;lat;lon;timestamp;P1;durP1;ratioP1;P2;durP2;ratioP2
21472;SDS011;10898;48.072;11.682;2023-09-07T00:01:42;5.40;;;4.60;;
21472;SDS011;10898;48.072;11.682;2023-09-07T00:03:44;5.35;;;4.85;;
21472;SDS011;10898;48.072;11.682;2023-09-07T00:05:47;4.93;;;4.43;;
21472;SDS011;10898;48.072;11.682;2023-09-07T00:07:49;5.05;;;4.47;;
21472;SDS011;10898;48.072;11.682;2023-09-07T00:09:51;5.50;;;4.78;;
21472;SDS011;10898;48.072;11.682;2023-09-07T00:11:53;5.53;;;4.72;;
21472;SDS011;10898;48.072;11.682;2023-09-07T00:13:56;5.13;;;4.30;;
21472;SDS011;10898;48.072;11.682;2023-09-07T00:16:00;5.30;;;4.80;;
21472;SDS011;10898;48.072;11.682;2023-09-07T00:18:03;5.38;;;4.60;;
21472;SDS011;10898;48.072;11.682;2023-09-07T00:20:06;5.22;;;4.70;;
21472;SDS011;10898;48.072;11.682;2023-09-07T00:22:11;5.30;;;4.80;;
21472;SDS011;10898;48.072;11.682;2023-09-07T00:24:14;8.65;;;5.15;;
21472;SDS011;10898;48.072;11.682;2023-09-07T00:26:17;5.88;;;5.10;;
21472;SDS011;10898;48.072;11.682;2023-09-07T00:28:20;6.03;;;5.10;;
21472;SDS011;10898;48.072;11.682;2023-09-07T00:30:22;5.75;;;5.20;;
21472;SDS011;10898;48.072;11.682;2023-09-07T00:32:24;5.38;;;4.82;;
21472;SDS011;10898;48.072;11.682;2023-09-07T00:34:26;5.40;;;4.70;;
21472;SDS011;10898;48.072;11.682;2023-09-07T00:36:29;7.60;;;5.25;;
21472;SDS011;10898;48.072;11.682;2023-09-07T00:38:31;5.57;;;4.88;;
21472;SDS011;10898;48.072;11.682;2023-09-07T00:40:34;5.53;;;5.00;;
21472;SDS011;10898;48.072;11.682;2023-09-07T00:42:36;5.45;;;4.95;;
21472;SDS011;10898;48.072;11.682;2023-09-07T00:44:39;5.90;;;5.00;;
21472;SDS011;10898;48.072;11.682;2023-09-07T00:46:41;6.53;;;5.07;;
21472;SDS011;10898;48.072;11.682;2023-09-07T00:48:45;5.57;;;4.85;;
21472;SDS011;10898;48.072;11.682;2023-09-07T00:50:47;6.53;;;5.43;;
21472;SDS011;10898;48.072;11.682;2023-09-07T00:52:50;5.45;;;4.95;;
21472;SDS011;10898;48.072;11.682;2023-09-07T00:54:52;6.28;;;5.22;;
21472;SDS011;10898;48.072;11.682;2023-09-07T00:56:55;6.18;;;5.63;;
21472;SDS011;10898;48.072;11.682;2023-09-07T00:58:57;9.40;;;5.80;;
21472;SDS011;10898;48.072;11.682;2023-09-07T01:01:01;5.25;;;4.75;;
21472;SDS011;10898;48.072;11.682;2023-09-07T01:03:04;5.80;;;5.22;;
21472;SDS011;10898;48.072;11.682;2023-09-07T01:05:07;5.35;;;4.95;;
21472;SDS011;10898;48.072;11.682;2023-09-07T01:09:23;6.20;;;5.20;;
21472;SDS011;10898;48.072;11.682;2023-09-07T01:11:25;6.93;;;5.13;;
21472;SDS011;10898;48.072;11.682;2023-09-07T01:13:28;6.80;;;6.10;;
21472;SDS011;10898;48.072;11.682;2023-09-07T01:15:30;7.28;;;5.85;;
21472;SDS011;10898;48.072;11.682;2023-09-07T01:17:33;6.10;;;5.50;;
21472;SDS011;10898;48.072;11.682;2023-09-07T01:19:36;6.80;;;6.10;;
21472;SDS011;10898;48.072;11.682;2023-09-07T01:21:39;6.50;;;5.20;;
21472;SDS011;10898;48.072;11.682;2023-09-07T01:23:42;6.45;;;5.85;;
21472;SDS011;10898;48.072;11.682;2023-09-07T01:25:44;8.38;;;6.32;;
21472;SDS011;10898;48.072;11.682;2023-09-07T01:27:46;6.93;;;5.82;;
21472;SDS011;10898;48.072;11.682;2023-09-07T01:29:48;5.88;;;5.28;;
21472;SDS011;10898;48.072;11.682;2023-09-07T01:31:52;7.07;;;6.38;;
21472;SDS011;10898;48.072;11.682;2023-09-07T01:33:54;7.38;;;6.28;;
21472;SDS011;10898;48.072;11.682;2023-09-07T01:35:56;6.07;;;5.53;;
21472;SDS011;10898;48.072;11.682;2023-09-07T01:37:58;6.30;;;5.78;;
21472;SDS011;10898;48.072;11.682;2023-09-07T01:40:01;6.20;;;5.70;;
21472;SDS011;10898;48.072;11.682;2023-09-07T01:42:08;6.65;;;5.95;;
21472;SDS011;10898;48.072;11.682;2023-09-07T01:44:10;6.60;;;5.80;;
21472;SDS011;10898;48.072;11.682;2023-09-07T01:46:12;6.45;;;5.88;;
21472;SDS011;10898;48.072;11.682;2023-09-07T01:48:15;6.20;;;5.60;;
21472;SDS011;10898;48.072;11.682;2023-09-07T01:50:17;7.63;;;5.57;;
21472;SDS011;10898;48.072;11.682;2023-09-07T01:52:19;6.50;;;5.80;;
21472;SDS011;10898;48.072;11.682;2023-09-07T01:54:22;10.30;;;7.68;;
21472;SDS011;10898;48.072;11.682;2023-09-07T01:56:24;6.53;;;5.82;;
21472;SDS011;10898;48.072;11.682;2023-09-07T01:58:26;5.78;;;5.28;;
21472;SDS011;10898;48.072;11.682;2023-09-07T02:00:30;6.68;;;5.97;;
21472;SDS011;10898;48.072;11.682;2023-09-07T02:02:32;6.00;;;5.40;;
21472;SDS011;10898;48.072;11.682;2023-09-07T02:04:34;6.35;;;5.72;;
21472;SDS011;10898;48.072;11.682;2023-09-07T02:06:36;6.25;;;5.65;;
21472;SDS011;10898;48.072;11.682;2023-09-07T02:08:38;6.60;;;5.90;;
21472;SDS011;10898;48.072;11.682;2023-09-07T02:10:41;6.00;;;5.35;;
21472;SDS011;10898;48.072;11.682;2023-09-07T02:12:45;7.45;;;6.03;;
21472;SDS011;10898;48.072;11.682;2023-09-07T02:14:47;5.85;;;5.25;;
21472;SDS011;10898;48.072;11.682;2023-09-07T02:16:49;6.25;;;5.65;;
21472;SDS011;10898;48.072;11.682;2023-09-07T02:18:59;7.00;;;4.80;;
21472;SDS011;10898;48.072;11.682;2023-09-07T02:21:02;8.38;;;5.15;;
21472;SDS011;10898;48.072;11.682;2023-09-07T02:23:04;6.82;;;5.38;;
21472;SDS011;10898;48.072;11.682;2023-09-07T02:25:07;5.75;;;5.25;;
21472;SDS011;10898;48.072;11.682;2023-09-07T02:27:09;6.55;;;5.55;;
21472;SDS011;10898;48.072;11.682;2023-09-07T02:29:12;6.60;;;6.00;;
21472;SDS011;10898;48.072;11.682;2023-09-07T02:31:14;6.03;;;5.43;;
21472;SDS011;10898;48.072;11.682;2023-09-07T02:33:16;6.22;;;5.63;;
21472;SDS011;10898;48.072;11.682;2023-09-07T02:35:18;6.10;;;5.57;;
21472;SDS011;10898;48.072;11.682;2023-09-07T02:37:21;6.18;;;5.15;;
21472;SDS011;10898;48.072;11.682;2023-09-07T02:39:23;6.95;;;5.80;;
21472;SDS011;10898;48.072;11.682;2023-09-07T02:41:28;6.57;;;5.97;;
21472;SDS011;10898;48.072;11.682;2023-09-07T02:43:30;6.65;;;6.05;;
21472;SDS011;10898;48.072;11.682;2023-09-07T02:45:33;6.82;;;5.85;;
21472;SDS011;10898;48.072;11.682;2023-09-07T02:47:35;7.18;;;6.40;;
21472;SDS011;10898;48.072;11.682;2023-09-07T02:49:37;10.00;;;5.40;;
21472;SDS011;10898;48.072;11.682;2023-09-07T02:51:40;6.70;;;5.38;;
21472;SDS011;10898;48.072;11.682;2023-09-07T02:53:42;6.35;;;5.75;;
21472;SDS011;10898;48.072;11.682;2023-09-07T02:55:44;7.15;;;6.03;;
21472;SDS011;10898;48.072;11.682;2023-09-07T02:57:46;7.38;;;5.40;;
21472;SDS011;10898;48.072;11.682;2023-09-07T02:59:49;6.07;;;5.47;;
21472;SDS011;10898;48.072;11.682;2023-09-07T03:01:51;9.23;;;5.90;;
21472;SDS011;10898;48.072;11.682;2023-09-07T03:03:53;5.68;;;5.18;;
21472;SDS011;10898;48.072;11.682;2023-09-07T03:05:56;6.45;;;5.32;;
21472;SDS011;10898;48.072;11.682;2023-09-07T03:07:58;6.00;;;5.30;;
21472;SDS011;10898;48.072;11.682;2023-09-07T03:10:00;6.03;;;5.50;;
21472;SDS011;10898;48.072;11.682;2023-09-07T03:12:02;5.78;;;4.95;;
21472;SDS011;10898;48.072;11.682;2023-09-07T03:14:05;5.88;;;5.25;;
21472;SDS011;10898;48.072;11.682;2023-09-07T03:16:07;5.53;;;5.03;;
21472;SDS011;10898;48.072;11.682;2023-09-07T03:18:09;6.43;;;5.55;;
21472;SDS011;10898;48.072;11.682;2023-09-07T03:20:12;5.85;;;5.30;;
21472;SDS011;10898;48.072;11.682;2023-09-07T03:22:17;5.90;;;5.40;;
21472;SDS011;10898;48.072;11.682;2023-09-07T03:24:19;7.22;;;6.05;;
21472;SDS011;10898;48.072;11.682;2023-09-07T03:26:21;7.70;;;5.70;;
21472;SDS011;10898;48.072;11.682;2023-09-07T03:28:24;7.95;;;5.35;;
21472;SDS011;10898;48.072;11.682;2023-09-07T03:32:28;6.93;;;5.78;;
21472;SDS011;10898;48.072;11.682;2023-09-07T03:34:34;6.32;;;5.72;;
21472;SDS011;10898;48.072;11.682;2023-09-07T03:36:36;6.05;;;5.45;;
21472;SDS011;10898;48.072;11.682;2023-09-07T03:38:39;5.78;;;5.28;;
21472;SDS011;10898;48.072;11.682;2023-09-07T03:40:41;5.70;;;5.20;;
21472;SDS011;10898;48.072;11.682;2023-09-07T03:42:44;6.00;;;5.35;;
21472;SDS011;10898;48.072;11.682;2023-09-07T03:44:47;5.80;;;5.20;;
21472;SDS011;10898;48.072;11.682;2023-09-07T03:46:49;6.30;;;4.95;;
21472;SDS011;10898;48.072;11.682;2023-09-07T03:48:52;5.30;;;4.82;;
21472;SDS011;10898;48.072;11.682;2023-09-07T03:50:54;6.47;;;5.85;;
21472;SDS011;10898;48.072;11.682;2023-09-07T03:52:56;8.82;;;5.22;;
21472;SDS011;10898;48.072;11.682;2023-09-07T03:54:59;6.03;;;5.43;;
21472;SDS011;10898;48.072;11.682;2023-09-07T03:57:01;6.80;;;5.40;;
21472;SDS011;10898;48.072;11.682;2023-09-07T03:59:04;5.85;;;5.20;;
21472;SDS011;10898;48.072;11.682;2023-09-07T04:01:06;5.50;;;4.85;;
21472;SDS011;10898;48.072;11.682;2023-09-07T04:03:08;6.97;;;5.53;;
21472;SDS011;10898;48.072;11.682;2023-09-07T04:05:11;6.55;;;5.95;;
21472;SDS011;10898;48.072;11.682;2023-09-07T04:07:13;6.05;;;5.25;;
21472;SDS011;10898;48.072;11.682;2023-09-07T04:09:15;5.18;;;4.70;;
21472;SDS011;10898;48.072;11.682;2023-09-07T04:11:18;7.05;;;5.85;;
21472;SDS011;10898;48.072;11.682;2023-09-07T04:13:20;7.55;;;5.40;;
21472;SDS011;10898;48.072;11.682;2023-09-07T04:15:22;6.68;;;5.97;;
21472;SDS011;10898;48.072;11.682;2023-09-07T04:17:26;6.78;;;5.93;;
21472;SDS011;10898;48.072;11.682;2023-09-07T04:19:29;8.68;;;6.68;;
21472;SDS011;10898;48.072;11.682;2023-09-07T04:21:31;5.90;;;5.30;;
21472;SDS011;10898;48.072;11.682;2023-09-07T04:23:33;8.63;;;6.00;;
21472;SDS011;10898;48.072;11.682;2023-09-07T04:25:40;7.78;;;5.95;;
21472;SDS011;10898;48.072;11.682;2023-09-07T04:27:42;7.00;;;6.30;;
21472;SDS011;10898;48.072;11.682;2023-09-07T04:29:44;8.27;;;6.10;;
21472;SDS011;10898;48.072;11.682;2023-09-07T04:31:46;6.82;;;6.10;;
21472;SDS011;10898;48.072;11.682;2023-09-07T04:33:48;7.03;;;6.07;;
21472;SDS011;10898;48.072;11.682;2023-09-07T04:35:51;6.47;;;5.78;;
21472;SDS011;10898;48.072;11.682;2023-09-07T04:37:53;8.75;;;6.07;;
21472;SDS011;10898;48.072;11.682;2023-09-07T04:39:55;7.13;;;6.43;;
21472;SDS011;10898;48.072;11.682;2023-09-07T04:41:58;6.57;;;5.57;;
21472;SDS011;10898;48.072;11.682;2023-09-07T04:44:00;8.68;;;5.63;;
21472;SDS011;10898;48.072;11.682;2023-09-07T04:46:03;6.50;;;5.55;;
21472;SDS011;10898;48.072;11.682;2023-09-07T04:48:05;10.65;;;5.50;;
21472;SDS011;10898;48.072;11.682;2023-09-07T04:50:07;7.70;;;5.47;;
21472;SDS011;10898;48.072;11.682;2023-09-07T04:52:10;6.05;;;5.45;;
21472;SDS011;10898;48.072;11.682;2023-09-07T04:54:12;6.00;;;5.40;;
21472;SDS011;10898;48.072;11.682;2023-09-07T04:56:14;7.13;;;5.50;;
21472;SDS011;10898;48.072;11.682;2023-09-07T04:58:17;10.68;;;5.43;;
21472;SDS011;10898;48.072;11.682;2023-09-07T05:00:19;6.78;;;6.03;;
21472;SDS011;10898;48.072;11.682;2023-09-07T05:02:22;6.80;;;6.10;;
21472;SDS011;10898;48.072;11.682;2023-09-07T05:04:24;7.97;;;5.97;;
21472;SDS011;10898;48.072;11.682;2023-09-07T05:06:26;6.30;;;5.68;;
21472;SDS011;10898;48.072;11.682;2023-09-07T05:08:28;6.88;;;6.28;;
21472;SDS011;10898;48.072;11.682;2023-09-07T05:10:34;11.07;;;6.28;;
21472;SDS011;10898;48.072;11.682;2023-09-07T05:12:36;6.47;;;5.88;;
21472;SDS011;10898;48.072;11.682;2023-09-07T05:14:39;8.00;;;6.15;;
21472;SDS011;10898;48.072;11.682;2023-09-07T05:16:44;6.78;;;5.90;;
21472;SDS011;10898;48.072;11.682;2023-09-07T05:18:46;6.00;;;5.40;;
21472;SDS011;10898;48.072;11.682;2023-09-07T05:20:48;7.15;;;5.82;;
21472;SDS011;10898;48.072;11.682;2023-09-07T05:22:52;7.57;;;6.15;;
21472;SDS011;10898;48.072;11.682;2023-09-07T05:24:55;8.18;;;6.75;;
21472;SDS011;10898;48.072;11.682;2023-09-07T05:26:57;11.75;;;6.57;;
21472;SDS011;10898;48.072;11.682;2023-09-07T05:28:59;8.65;;;6.32;;
21472;SDS011;10898;48.072;11.682;2023-09-07T05:31:01;11.15;;;6.70;;
21472;SDS011;10898;48.072;11.682;2023-09-07T05:33:04;8.82;;;7.38;;
21472;SDS011;10898;48.072;11.682;2023-09-07T05:35:06;9.00;;;6.50;;
21472;SDS011;10898;48.072;11.682;2023-09-07T05:37:08;7.35;;;6.65;;
21472;SDS011;10898;48.072;11.682;2023-09-07T05:39:11;7.20;;;6.50;;
21472;SDS011;10898;48.072;11.682;2023-09-07T05:41:13;8.48;;;6.60;;
21472;SDS011;10898;48.072;11.682;2023-09-07T05:43:15;9.02;;;6.70;;
21472;SDS011;10898;48.072;11.682;2023-09-07T05:45:17;11.07;;;6.95;;
21472;SDS011;10898;48.072;11.682;2023-09-07T05:47:19;10.68;;;7.63;;
21472;SDS011;10898;48.072;11.682;2023-09-07T05:49:22;8.10;;;7.22;;
21472;SDS011;10898;48.072;11.682;2023-09-07T05:51:25;8.77;;;6.80;;
21472;SDS011;10898;48.072;11.682;2023-09-07T05:53:27;8.45;;;6.75;;
21472;SDS011;10898;48.072;11.682;2023-09-07T05:55:31;11.80;;;6.50;;
21472;SDS011;10898;48.072;11.682;2023-09-07T05:57:33;11.15;;;7.60;;
21472;SDS011;10898;48.072;11.682;2023-09-07T05:59:36;10.18;;;7.18;;
21472;SDS011;10898;48.072;11.682;2023-09-07T06:01:38;8.57;;;7.53;;
21472;SDS011;10898;48.072;11.682;2023-09-07T06:03:41;9.85;;;7.78;;
21472;SDS011;10898;48.072;11.682;2023-09-07T06:05:43;8.13;;;7.10;;
21472;SDS011;10898;48.072;11.682;2023-09-07T06:07:45;9.98;;;7.85;;
21472;SDS011;10898;48.072;11.682;2023-09-07T06:09:48;14.65;;;8.88;;
21472;SDS011;10898;48.072;11.682;2023-09-07T06:11:50;12.50;;;8.85;;
21472;SDS011;10898;48.072;11.682;2023-09-07T06:13:52;10.88;;;8.45;;
21472;SDS011;10898;48.072;11.682;2023-09-07T06:15:54;12.35;;;8.95;;
21472;SDS011;10898;48.072;11.682;2023-09-07T06:17:57;14.43;;;8.57;;
21472;SDS011;10898;48.072;11.682;2023-09-07T06:19:59;12.43;;;8.80;;
21472;SDS011;10898;48.072;11.682;2023-09-07T06:22:02;12.85;;;9.05;;
21472;SDS011;10898;48.072;11.682;2023-09-07T06:24:04;9.75;;;8.60;;
21472;SDS011;10898;48.072;11.682;2023-09-07T06:26:08;10.10;;;8.48;;
21472;SDS011;10898;48.072;11.682;2023-09-07T06:28:10;10.00;;;8.40;;
21472;SDS011;10898;48.072;11.682;2023-09-07T06:30:12;9.85;;;8.07;;
21472;SDS011;10898;48.072;11.682;2023-09-07T06:32:14;13.52;;;10.15;;
21472;SDS011;10898;48.072;11.682;2023-09-07T06:34:17;10.93;;;9.30;;
21472;SDS011;10898;48.072;11.682;2023-09-07T06:36:19;10.30;;;8.45;;
21472;SDS011;10898;48.072;11.682;2023-09-07T06:38:37;15.52;;;10.63;;
21472;SDS011;10898;48.072;11.682;2023-09-07T06:40:40;12.18;;;10.27;;
21472;SDS011;10898;48.072;11.682;2023-09-07T06:42:42;11.07;;;9.85;;
21472;SDS011;10898;48.072;11.682;2023-09-07T06:44:44;13.27;;;10.88;;
21472;SDS011;10898;48.072;11.682;2023-09-07T06:46:46;13.48;;;11.50;;
21472;SDS011;10898;48.072;11.682;2023-09-07T06:48:50;20.85;;;11.25;;
21472;SDS011;10898;48.072;11.682;2023-09-07T06:50:52;12.25;;;10.90;;
21472;SDS011;10898;48.072;11.682;2023-09-07T06:52:55;12.18;;;10.82;;
21472;SDS011;10898;48.072;11.682;2023-09-07T06:54:57;12.02;;;10.68;;
21472;SDS011;10898;48.072;11.682;2023-09-07T06:56:59;16.63;;;11.60;;
21472;SDS011;10898;48.072;11.682;2023-09-07T06:59:01;13.70;;;10.73;;
21472;SDS011;10898;48.072;11.682;2023-09-07T07:01:04;12.77;;;11.38;;
21472;SDS011;10898;48.072;11.682;2023-09-07T07:03:07;13.77;;;11.25;;
21472;SDS011;10898;48.072;11.682;2023-09-07T07:05:09;11.23;;;10.15;;
21472;SDS011;10898;48.072;11.682;2023-09-07T07:07:12;11.95;;;10.88;;
21472;SDS011;10898;48.072;11.682;2023-09-07T07:09:14;11.57;;;10.25;;
21472;SDS011;10898;48.072;11.682;2023-09-07T07:11:16;13.10;;;11.80;;
21472;SDS011;10898;48.072;11.682;2023-09-07T07:13:18;13.13;;;11.73;;
21472;SDS011;10898;48.072;11.682;2023-09-07T07:15:21;13.80;;;11.23;;
21472;SDS011;10898;48.072;11.682;2023-09-07T07:17:23;12.38;;;10.40;;
21472;SDS011;10898;48.072;11.682;2023-09-07T07:19:25;13.50;;;10.35;;
21472;SDS011;10898;48.072;11.682;2023-09-07T07:21:27;13.68;;;10.10;;
21472;SDS011;10898;48.072;11.682;2023-09-07T07:23:29;11.10;;;8.98;;
21472;SDS011;10898;48.072;11.682;2023-09-07T07:25:32;10.48;;;9.38;;
21472;SDS011;10898;48.072;11.682;2023-09-07T07:27:35;9.73;;;8.73;;
21472;SDS011;10898;48.072;11.682;2023-09-07T07:29:37;10.02;;;8.45;;
21472;SDS011;10898;48.072;11.682;2023-09-07T07:33:42;10.02;;;8.95;;
21472;SDS011;10898;48.072;11.682;2023-09-07T07:35:44;10.35;;;8.07;;
21472;SDS011;10898;48.072;11.682;2023-09-07T07:37:47;10.55;;;8.40;;
21472;SDS011;10898;48.072;11.682;2023-09-07T07:39:49;10.07;;;8.20;;
21472;SDS011;10898;48.072;11.682;2023-09-07T07:41:51;9.43;;;8.52;;
21472;SDS011;10898;48.072;11.682;2023-09-07T07:43:53;10.60;;;8.20;;
21472;SDS011;10898;48.072;11.682;2023-09-07T07:45:55;12.32;;;8.50;;
21472;SDS011;10898;48.072;11.682;2023-09-07T07:47:58;9.60;;;7.38;;
21472;SDS011;10898;48.072;11.682;2023-09-07T07:50:01;10.60;;;8.07;;
21472;SDS011;10898;48.072;11.682;2023-09-07T07:52:03;8.80;;;7.95;;
21472;SDS011;10898;48.072;11.682;2023-09-07T07:54:06;9.15;;;7.63;;
21472;SDS011;10898;48.072;11.682;2023-09-07T07:56:15;7.93;;;7.13;;
21472;SDS011;10898;48.072;11.682;2023-09-07T07:58:17;8.65;;;7.75;;
21472;SDS011;10898;48.072;11.682;2023-09-07T08:00:20;10.93;;;8.32;;
21472;SDS011;10898;48.072;11.682;2023-09-07T08:02:22;8.98;;;8.07;;
21472;SDS011;10898;48.072;11.682;2023-09-07T08:04:24;11.10;;;8.63;;
21472;SDS011;10898;48.072;11.682;2023-09-07T08:06:26;7.90;;;7.20;;
21472;SDS011;10898;48.072;11.682;2023-09-07T08:08:29;8.93;;;7.97;;
21472;SDS011;10898;48.072;11.682;2023-09-07T08:12:33;9.23;;;7.20;;
21472;SDS011;10898;48.072;11.682;2023-09-07T08:14:36;7.22;;;6.53;;
21472;SDS011;10898;48.072;11.682;2023-09-07T08:16:38;9.32;;;7.55;;
21472;SDS011;10898;48.072;11.682;2023-09-07T08:18:40;8.77;;;7.43;;
21472;SDS011;10898;48.072;11.682;2023-09-07T08:20:43;9.05;;;7.45;;
21472;SDS011;10898;48.072;11.682;2023-09-07T08:22:46;10.00;;;7.13;;
21472;SDS011;10898;48.072;11.682;2023-09-07T08:24:48;7.82;;;7.05;;
21472;SDS011;10898;48.072;11.682;2023-09-07T08:26:52;9.02;;;7.63;;
21472;SDS011;10898;48.072;11.682;2023-09-07T08:28:56;7.55;;;6.75;;
21472;SDS011;10898;48.072;11.682;2023-09-07T08:30:58;7.45;;;6.60;;
21472;SDS011;10898;48.072;11.682;2023-09-07T08:33:02;8.02;;;6.35;;
21472;SDS011;10898;48.072;11.682;2023-09-07T08:35:08;7.88;;;7.10;;
21472;SDS011;10898;48.072;11.682;2023-09-07T08:37:10;8.07;;;7.25;;
21472;SDS011;10898;48.072;11.682;2023-09-07T08:39:13;8.35;;;6.43;;
21472;SDS011;10898;48.072;11.682;2023-09-07T08:41:15;8.23;;;6.95;;
21472;SDS011;10898;48.072;11.682;2023-09-07T08:43:17;8.73;;;7.00;;
21472;SDS011;10898;48.072;11.682;2023-09-07T08:45:21;9.55;;;7.60;;
21472;SDS011;10898;48.072;11.682;2023-09-07T08:47:24;9.15;;;6.88;;
21472;SDS011;10898;48.072;11.682;2023-09-07T08:49:27;7.03;;;6.38;;
21472;SDS011;10898;48.072;11.682;2023-09-07T08:51:31;8.00;;;7.30;;
21472;SDS011;10898;48.072;11.682;2023-09-07T08:53:33;7.75;;;6.88;;
21472;SDS011;10898;48.072;11.682;2023-09-07T08:55:36;7.78;;;6.35;;
21472;SDS011;10898;48.072;11.682;2023-09-07T08:57:39;7.50;;;6.43;;
21472;SDS011;10898;48.072;11.682;2023-09-07T08:59:43;7.82;;;6.20;;
21472;SDS011;10898;48.072;11.682;2023-09-07T09:01:46;10.60;;;6.45;;
21472;SDS011;10898;48.072;11.682;2023-09-07T09:03:49;7.53;;;6.80;;
21472;SDS011;10898;48.072;11.682;2023-09-07T09:05:51;7.28;;;6.57;;
21472;SDS011;10898;48.072;11.682;2023-09-07T09:08:01;8.60;;;6.60;;
21472;SDS011;10898;48.072;11.682;2023-09-07T09:10:05;10.60;;;6.93;;
21472;SDS011;10898;48.072;11.682;2023-09-07T09:12:08;6.15;;;5.57;;
21472;SDS011;10898;48.072;11.682;2023-09-07T09:14:10;6.95;;;6.20;;
21472;SDS011;10898;48.072;11.682;2023-09-07T09:16:12;10.32;;;6.70;;
21472;SDS011;10898;48.072;11.682;2023-09-07T09:18:15;6.90;;;6.22;;
21472;SDS011;10898;48.072;11.682;2023-09-07T09:20:24;7.20;;;6.47;;
21472;SDS011;10898;48.072;11.682;2023-09-07T09:22:29;7.00;;;6.30;;
21472;SDS011;10898;48.072;11.682;2023-09-07T09:24:34;9.05;;;6.28;;
21472;SDS011;10898;48.072;11.682;2023-09-07T09:26:37;7.68;;;5.88;;
21472;SDS011;10898;48.072;11.682;2023-09-07T09:28:40;6.82;;;6.13;;
21472;SDS011;10898;48.072;11.682;2023-09-07T09:30:42;9.10;;;6.55;;
21472;SDS011;10898;48.072;11.682;2023-09-07T09:32:44;7.32;;;6.63;;
21472;SDS011;10898;48.072;11.682;2023-09-07T09:34:46;7.30;;;6.70;;
21472;SDS011;10898;48.072;11.682;2023-09-07T09:36:50;9.38;;;6.25;;
21472;SDS011;10898;48.072;11.682;2023-09-07T09:38:53;7.20;;;6.50;;
21472;SDS011;10898;48.072;11.682;2023-09-07T09:40:55;7.60;;;6.65;;
21472;SDS011;10898;48.072;11.682;2023-09-07T09:42:57;7.18;;;6.47;;
21472;SDS011;10898;48.072;11.682;2023-09-07T09:45:01;9.82;;;6.65;;
21472;SDS011;10898;48.072;11.682;2023-09-07T09:47:04;6.82;;;6.10;;
21472;SDS011;10898;48.072;11.682;2023-09-07T09:49:07;8.23;;;6.80;;
21472;SDS011;10898;48.072;11.682;2023-09-07T09:51:12;7.07;;;6.38;;
21472;SDS011;10898;48.072;11.682;2023-09-07T09:53:16;7.85;;;6.30;;
21472;SDS011;10898;48.072;11.682;2023-09-07T09:55:21;7.32;;;6.40;;
21472;SDS011;10898;48.072;11.682;2023-09-07T09:57:24;6.72;;;6.03;;
21472;SDS011;10898;48.072;11.682;2023-09-07T09:59:26;6.28;;;5.72;;
21472;SDS011;10898;48.072;11.682;2023-09-07T10:01:28;8.27;;;6.80;;
21472;SDS011;10898;48.072;11.682;2023-09-07T10:03:41;9.68;;;6.28;;
21472;SDS011;10898;48.072;11.682;2023-09-07T10:05:48;6.95;;;6.35;;
21472;SDS011;10898;48.072;11.682;2023-09-07T10:07:50;6.50;;;5.70;;
21472;SDS011;10898;48.072;11.682;2023-09-07T10:09:55;6.75;;;6.03;;
21472;SDS011;10898;48.072;11.682;2023-09-07T10:11:58;7.97;;;6.45;;
21472;SDS011;10898;48.072;11.682;2023-09-07T10:14:01;9.43;;;6.05;;
21472;SDS011;10898;48.072;11.682;2023-09-07T10:16:05;8.13;;;6.30;;
21472;SDS011;10898;48.072;11.682;2023-09-07T10:18:12;7.25;;;6.50;;
21472;SDS011;10898;48.072;11.682;2023-09-07T10:20:19;7.38;;;6.28;;
21472;SDS011;10898;48.072;11.682;2023-09-07T10:22:24;6.15;;;5.55;;
21472;SDS011;10898;48.072;11.682;2023-09-07T10:24:27;7.05;;;6.07;;
21472;SDS011;10898;48.072;11.682;2023-09-07T10:26:30;7.32;;;6.00;;
21472;SDS011;10898;48.072;11.682;2023-09-07T10:28:32;6.22;;;5.68;;
21472;SDS011;10898;48.072;11.682;2023-09-07T10:32:37;7.10;;;5.90;;
21472;SDS011;10898;48.072;11.682;2023-09-07T10:34:42;6.60;;;6.00;;
21472;SDS011;10898;48.072;11.682;2023-09-07T10:36:45;7.00;;;6.30;;
21472;SDS011;10898;48.072;11.682;2023-09-07T10:38:47;6.57;;;5.90;;
21472;SDS011;10898;48.072;11.682;2023-09-07T10:40:54;7.88;;;5.15;;
21472;SDS011;10898;48.072;11.682;2023-09-07T10:43:02;6.57;;;5.97;;
21472;SDS011;10898;48.072;11.682;2023-09-07T10:45:12;7.07;;;6.38;;
21472;SDS011;10898;48.072;11.682;2023-09-07T10:47:16;7.40;;;6.55;;
21472;SDS011;10898;48.072;11.682;2023-09-07T10:49:19;6.68;;;6.05;;
21472;SDS011;10898;48.072;11.682;2023-09-07T10:51:21;6.68;;;6.07;;
21472;SDS011;10898;48.072;11.682;2023-09-07T10:53:27;6.15;;;5.68;;
21472;SDS011;10898;48.072;11.682;2023-09-07T10:55:35;6.55;;;5.95;;
21472;SDS011;10898;48.072;11.682;2023-09-07T10:57:46;7.78;;;5.32;;
21472;SDS011;10898;48.072;11.682;2023-09-07T10:59:48;6.10;;;5.60;;
21472;SDS011;10898;48.072;11.682;2023-09-07T11:01:50;6.57;;;5.85;;
21472;SDS011;10898;48.072;11.682;2023-09-07T11:03:54;6.45;;;5.85;;
21472;SDS011;10898;48.072;11.682;2023-09-07T11:05:59;6.30;;;5.70;;
21472;SDS011;10898;48.072;11.682;2023-09-07T11:08:05;6.18;;;5.53;;
21472;SDS011;10898;48.072;11.682;2023-09-07T11:10:08;6.18;;;5.55;;
21472;SDS011;10898;48.072;11.682;2023-09-07T11:14:13;7.28;;;5.78;;
21472;SDS011;10898;48.072;11.682;2023-09-07T11:16:15;6.93;;;5.63;;
21472;SDS011;10898;48.072;11.682;2023-09-07T11:18:19;6.43;;;5.82;;
21472;SDS011;10898;48.072;11.682;2023-09-07T11:20:23;9.10;;;5.72;;
21472;SDS011;10898;48.072;11.682;2023-09-07T11:22:25;6.20;;;5.70;;
21472;SDS011;10898;48.072;11.682;2023-09-07T11:24:27;7.53;;;5.60;;
21472;SDS011;10898;48.072;11.682;2023-09-07T11:26:48;6.07;;;5.47;;
21472;SDS011;10898;48.072;11.682;2023-09-07T11:28:51;6.53;;;5.93;;
21472;SDS011;10898;48.072;11.682;2023-09-07T11:30:53;5.43;;;5.00;;
21472;SDS011;10898;48.072;11.682;2023-09-07T11:33:02;6.05;;;5.43;;
21472;SDS011;10898;48.072;11.682;2023-09-07T11:35:04;6.28;;;5.68;;
21472;SDS011;10898;48.072;11.682;2023-09-07T11:37:08;6.82;;;5.70;;
21472;SDS011;10898;48.072;11.682;2023-09-07T11:39:10;7.97;;;5.43;;
21472;SDS011;10898;48.072;11.682;2023-09-07T11:41:16;6.30;;;5.30;;
21472;SDS011;10898;48.072;11.682;2023-09-07T11:43:18;5.60;;;5.03;;
21472;SDS011;10898;48.072;11.682;2023-09-07T11:45:20;6.38;;;5.47;;
21472;SDS011;10898;48.072;11.682;2023-09-07T11:47:23;7.50;;;5.30;;
21472;SDS011;10898;48.072;11.682;2023-09-07T11:49:25;5.80;;;5.30;;
21472;SDS011;10898;48.072;11.682;2023-09-07T11:51:27;6.13;;;5.28;;
21472;SDS011;10898;48.072;11.682;2023-09-07T11:53:29;6.10;;;5.60;;
21472;SDS011;10898;48.072;11.682;2023-09-07T11:55:34;5.80;;;5.28;;
21472;SDS011;10898;48.072;11.682;2023-09-07T11:57:36;6.80;;;4.95;;
21472;SDS011;10898;48.072;11.682;2023-09-07T11:59:39;7.63;;;5.10;;
21472;SDS011;10898;48.072;11.682;2023-09-07T12:01:58;5.57;;;5.00;;
21472;SDS011;10898;48.072;11.682;2023-09-07T12:04:01;5.95;;;5.35;;
21472;SDS011;10898;48.072;11.682;2023-09-07T12:06:05;6.03;;;5.40;;
21472;SDS011;10898;48.072;11.682;2023-09-07T12:08:07;7.93;;;5.32;;
21472;SDS011;10898;48.072;11.682;2023-09-07T12:10:10;6.25;;;5.20;;
21472;SDS011;10898;48.072;11.682;2023-09-07T12:12:13;5.47;;;4.72;;
21472;SDS011;10898;48.072;11.682;2023-09-07T12:14:15;6.15;;;5.50;;
21472;SDS011;10898;48.072;11.682;2023-09-07T12:16:17;5.82;;;5.30;;
21472;SDS011;10898;48.072;11.682;2023-09-07T12:18:19;6.90;;;5.28;;
21472;SDS011;10898;48.072;11.682;2023-09-07T12:20:22;5.93;;;5.13;;